createdAt,value
2022-12-03T00:02:56.211Z,98225.31
2022-12-03T00:07:58.041Z,98212.00
2022-12-03T00:12:59.633Z,98206.69
2022-12-03T00:18:01.219Z,98212.34
2022-12-03T00:23:02.801Z,98219.19
2022-12-03T00:28:04.637Z,98211.34
2022-12-03T00:33:06.467Z,98203.56
2022-12-03T00:38:08.048Z,98211.06
2022-12-03T00:43:09.663Z,98199.22
2022-12-03T00:48:11.338Z,98201.38
2022-12-03T00:53:13.028Z,98207.47
2022-12-03T00:58:14.608Z,98215.59
2022-12-03T01:03:16.292Z,98204.94
2022-12-03T01:08:18.017Z,98199.66
2022-12-03T01:13:19.569Z,98205.09
2022-12-03T01:18:21.154Z,98205.44
2022-12-03T01:23:22.731Z,98211.69
2022-12-03T01:28:24.296Z,98205.66
2022-12-03T01:33:25.867Z,98200.03
2022-12-03T01:38:27.421Z,98202.69
2022-12-03T01:43:29.139Z,98197.59
2022-12-03T01:48:35.630Z,98193.41
2022-12-03T01:53:37.197Z,98199.63
2022-12-03T01:58:40.547Z,98191.78
2022-12-03T02:03:43.337Z,98198.09
2022-12-03T02:08:45.406Z,98203.47
2022-12-03T02:13:51.125Z,98196.53
2022-12-03T02:18:52.880Z,98194.16
2022-12-03T02:24:32.022Z,98189.56
2022-12-03T02:29:33.657Z,98185.31
2022-12-03T02:34:45.988Z,98188.69
2022-12-03T02:39:53.798Z,98187.03
2022-12-03T02:45:02.041Z,98199.38
2022-12-03T02:50:07.929Z,98193.25
2022-12-03T02:55:10.037Z,98194.97
2022-12-03T03:00:12.703Z,98199.75
2022-12-03T03:05:15.854Z,98203.00
2022-12-03T03:10:21.862Z,98205.84
2022-12-03T03:15:25.185Z,98193.91
2022-12-03T03:20:26.800Z,98199.75
2022-12-03T03:25:28.442Z,98195.47
2022-12-03T03:30:30.383Z,98209.16
2022-12-03T03:35:32.216Z,98201.50
2022-12-03T03:40:34.052Z,98193.25
2022-12-03T03:45:35.735Z,98190.09
2022-12-03T03:50:37.470Z,98187.69
2022-12-03T03:55:39.978Z,98197.00
2022-12-03T04:00:44.931Z,98189.25
2022-12-03T04:05:47.078Z,98194.72
2022-12-03T04:11:07.139Z,98186.97
2022-12-03T04:16:08.807Z,98187.69
2022-12-03T04:21:41.047Z,98188.88
2022-12-03T04:27:01.146Z,98186.88
2022-12-03T04:32:21.518Z,98178.69
2022-12-03T04:37:23.094Z,98177.03
2022-12-03T04:42:24.657Z,98171.69
2022-12-03T04:47:26.253Z,98176.03
2022-12-03T04:52:27.819Z,98171.69
2022-12-03T04:57:29.366Z,98174.03
2022-12-03T05:02:31.007Z,98174.78
2022-12-03T05:07:32.729Z,98170.75
2022-12-03T05:12:34.478Z,98174.25
2022-12-03T05:17:36.068Z,98171.03
2022-12-03T05:22:37.642Z,98159.09
2022-12-03T05:27:39.269Z,98154.91
2022-12-03T05:32:40.818Z,98160.84
2022-12-03T05:37:42.756Z,98149.91
2022-12-03T05:43:01.228Z,98156.16
2022-12-03T05:48:04.955Z,98157.31
2022-12-03T05:53:06.622Z,98146.94
2022-12-03T05:58:08.274Z,98151.22
2022-12-03T06:03:10.543Z,98154.59
2022-12-03T06:08:12.433Z,98154.41
2022-12-03T06:13:14.142Z,98150.69
2022-12-03T06:18:15.730Z,98166.34
2022-12-03T06:23:17.392Z,98169.81
2022-12-03T06:28:18.990Z,98163.88
2022-12-03T06:33:20.566Z,98166.88
2022-12-03T06:38:22.406Z,98170.56
2022-12-03T06:43:24.005Z,98174.63
2022-12-03T06:48:25.578Z,98179.00
2022-12-03T06:53:27.189Z,98181.03
2022-12-03T06:58:28.814Z,98171.91
2022-12-03T07:03:30.448Z,98178.19
2022-12-03T07:08:32.033Z,98172.81
2022-12-03T07:13:33.627Z,98169.41
2022-12-03T07:18:35.195Z,98172.31
2022-12-03T07:23:36.818Z,98175.09
2022-12-03T07:28:38.521Z,98173.34
2022-12-03T07:33:40.134Z,98174.50
2022-12-03T07:38:41.782Z,98170.53
2022-12-03T07:43:45.211Z,98170.53
2022-12-03T07:48:46.819Z,98161.66
2022-12-03T07:53:48.446Z,98167.00
2022-12-03T07:58:50.055Z,98165.91
2022-12-03T08:03:51.728Z,98175.31
2022-12-03T08:08:53.348Z,98173.28
2022-12-03T08:13:57.330Z,98164.63
2022-12-03T08:18:58.980Z,98168.09
2022-12-03T08:24:12.722Z,98162.16
2022-12-03T08:29:16.887Z,98155.13
2022-12-03T08:34:21.164Z,98169.16
2022-12-03T08:39:34.716Z,98160.97
2022-12-03T08:44:40.901Z,98160.88
2022-12-03T08:49:47.309Z,98171.84
2022-12-03T08:54:53.788Z,98180.84
2022-12-03T09:00:20.801Z,98182.78
2022-12-03T09:05:27.235Z,98179.31
2022-12-03T09:10:29.021Z,98189.34
2022-12-03T09:15:30.581Z,98195.78
2022-12-03T09:20:32.274Z,98198.00
2022-12-03T09:25:34.013Z,98187.56
2022-12-03T09:30:35.744Z,98181.50
2022-12-03T09:35:37.356Z,98181.44
2022-12-03T09:40:39.358Z,98180.22
2022-12-03T09:45:41.096Z,98179.72
2022-12-03T09:50:43.508Z,98164.13
2022-12-03T09:55:47.074Z,98176.84
2022-12-03T10:00:51.421Z,98163.63
2022-12-03T10:05:53.885Z,98154.09
2022-12-03T10:10:56.697Z,98152.88
2022-12-03T10:16:00.884Z,98160.34
2022-12-03T10:21:02.657Z,98144.25
2022-12-03T10:26:04.367Z,98146.16
2022-12-03T10:31:12.244Z,98128.91
2022-12-03T10:36:23.397Z,98125.84
2022-12-03T10:41:28.835Z,98129.41
2022-12-03T10:46:30.485Z,98126.66
2022-12-03T10:51:32.216Z,98126.16
2022-12-03T10:56:34.043Z,98114.91
2022-12-03T11:01:35.687Z,98113.22
2022-12-03T11:06:37.385Z,98115.59
2022-12-03T11:11:39.105Z,98099.47
2022-12-03T11:16:40.649Z,98092.69
2022-12-03T11:22:06.839Z,98094.88
2022-12-03T11:27:16.348Z,98087.34
2022-12-03T11:32:42.947Z,98090.63
2022-12-03T11:37:44.567Z,98087.59
2022-12-03T11:42:47.892Z,98080.72
2022-12-03T11:47:58.536Z,98084.50
2022-12-03T11:53:24.857Z,98079.59
2022-12-03T11:58:29.368Z,98075.88
2022-12-03T12:03:52.627Z,98079.22
2022-12-03T12:08:59.738Z,98063.38
2022-12-03T12:14:05.639Z,98055.41
2022-12-03T12:19:32.471Z,98056.66
2022-12-03T12:24:40.724Z,98052.72
2022-12-03T12:29:45.894Z,98054.75
2022-12-03T12:34:50.416Z,98036.59
2022-12-03T12:39:54.539Z,98026.84
2022-12-03T12:45:18.333Z,98017.25
2022-12-03T12:50:20.237Z,98025.94
2022-12-03T12:55:23.279Z,98013.94
2022-12-03T13:00:25.169Z,98005.75
2022-12-03T13:05:38.104Z,98002.56
2022-12-03T13:10:41.990Z,98004.88
2022-12-03T13:16:00.922Z,98008.97
2022-12-03T13:21:25.603Z,98010.19
2022-12-03T13:26:39.269Z,98007.19
2022-12-03T13:31:46.748Z,98000.53
2022-12-03T13:36:55.278Z,98007.16
2022-12-03T13:42:31.289Z,97997.47
2022-12-03T13:47:33.147Z,97990.97
2022-12-03T13:52:34.973Z,98001.78
2022-12-03T13:57:36.795Z,97996.41
2022-12-03T14:02:39.023Z,97997.91
2022-12-03T14:07:41.464Z,97995.00
2022-12-03T14:12:43.375Z,97997.97
2022-12-03T14:17:45.159Z,97994.34
2022-12-03T14:22:46.932Z,97988.28
2022-12-03T14:27:50.043Z,97996.06
2022-12-03T14:32:51.855Z,97991.22
2022-12-03T14:37:53.740Z,97991.38
2022-12-03T14:42:55.531Z,97982.78
2022-12-03T14:47:57.310Z,97994.09
2022-12-03T14:53:00.682Z,97998.41
2022-12-03T14:58:02.438Z,97996.09
2022-12-03T15:03:04.459Z,98002.59
2022-12-03T15:08:06.736Z,97998.09
2022-12-03T15:13:08.671Z,98004.41
2022-12-03T15:18:10.444Z,98015.16
2022-12-03T15:23:14.492Z,98004.91
2022-12-03T15:28:16.551Z,98002.09
2022-12-03T15:33:18.358Z,98008.50
2022-12-03T15:38:20.153Z,98007.06
2022-12-03T15:43:22.031Z,98003.97
2022-12-03T15:48:23.845Z,98004.47
2022-12-03T15:53:25.636Z,98001.19
2022-12-03T15:58:27.406Z,98000.94
2022-12-03T16:03:29.355Z,97993.72
2022-12-03T16:08:31.337Z,97994.50
2022-12-03T16:13:33.364Z,98000.28
2022-12-03T16:18:35.156Z,97995.69
2022-12-03T16:23:36.928Z,97998.97
2022-12-03T16:28:38.719Z,97996.81
2022-12-03T16:33:40.497Z,97996.28
2022-12-03T16:38:42.437Z,98003.25
2022-12-03T16:43:47.283Z,98002.84
2022-12-03T16:48:49.219Z,97985.75
2022-12-03T16:53:51.180Z,97988.09
2022-12-03T16:58:52.954Z,97986.19
2022-12-03T17:03:55.939Z,97985.00
2022-12-03T17:08:57.785Z,97987.69
2022-12-03T17:13:59.713Z,97988.00
2022-12-03T17:19:01.525Z,97982.28
2022-12-03T17:24:03.396Z,97977.63
2022-12-03T17:29:05.174Z,97972.16
2022-12-03T17:34:07.950Z,97969.81
2022-12-03T17:39:09.713Z,97973.84
2022-12-03T17:44:16.348Z,97972.53
2022-12-03T17:49:21.110Z,97970.41
2022-12-03T17:54:23.027Z,97972.97
2022-12-03T17:59:24.811Z,97976.81
2022-12-03T18:04:27.200Z,97986.06
2022-12-03T18:09:29.090Z,97981.25
2022-12-03T18:14:30.975Z,97970.19
2022-12-03T18:19:32.736Z,97966.84
2022-12-03T18:24:35.087Z,97968.03
2022-12-03T18:29:36.936Z,97962.22
2022-12-03T18:34:38.708Z,97957.44
2022-12-03T18:39:43.005Z,97952.09
2022-12-03T18:44:49.638Z,97948.81
2022-12-03T18:49:52.320Z,97949.63
2022-12-03T18:54:55.435Z,97951.03
2022-12-03T18:59:57.545Z,97951.97
2022-12-03T19:04:59.540Z,97954.53
2022-12-03T19:10:01.342Z,97955.94
2022-12-03T19:15:04.954Z,97950.34
2022-12-03T19:20:09.225Z,97949.88
2022-12-03T19:25:11.029Z,97948.94
2022-12-03T19:30:13.150Z,97950.84
2022-12-03T19:35:14.993Z,97951.84
2022-12-03T19:40:16.964Z,97950.09
2022-12-03T19:45:18.783Z,97946.50
2022-12-03T19:50:23.173Z,97952.94
2022-12-03T19:55:25.431Z,97946.78
2022-12-03T20:00:27.251Z,97955.16
2022-12-03T20:05:33.145Z,97959.59
2022-12-03T20:10:35.606Z,97944.09
2022-12-03T20:15:37.622Z,97942.81
2022-12-03T20:20:39.420Z,97951.56
2022-12-03T20:25:41.245Z,97941.75
2022-12-03T20:30:44.647Z,97931.63
2022-12-03T20:35:51.812Z,97942.69
2022-12-03T20:40:54.029Z,97941.31
2022-12-03T20:46:01.083Z,97943.41
2022-12-03T20:51:06.650Z,97931.06
2022-12-03T20:56:09.427Z,97932.44
2022-12-03T21:01:23.320Z,97923.38
2022-12-03T21:06:28.015Z,97925.59
2022-12-03T21:11:32.116Z,97919.66
2022-12-03T21:21:57.865Z,97924.06
2022-12-03T21:26:59.647Z,97919.41
2022-12-03T21:32:01.913Z,97916.97
2022-12-03T21:37:03.852Z,97920.81
2022-12-03T21:42:33.402Z,97919.41
2022-12-03T21:47:32.135Z,97924.53
2022-12-03T21:52:38.330Z,97918.03
2022-12-03T21:57:40.146Z,97916.75
2022-12-03T22:02:42.097Z,97919.19
2022-12-03T22:07:44.057Z,97918.50
2022-12-03T22:12:45.868Z,97907.53
2022-12-03T22:17:48.056Z,97904.03
2022-12-03T22:22:49.862Z,97901.25
2022-12-03T22:27:52.862Z,97907.19
2022-12-03T22:32:54.640Z,97908.03
2022-12-03T22:37:56.409Z,97900.78
2022-12-03T22:42:58.222Z,97890.78
2022-12-03T22:47:59.998Z,97893.56
2022-12-03T22:53:01.771Z,97892.06
2022-12-03T22:58:04.426Z,97892.19
2022-12-03T23:03:06.967Z,97896.84
2022-12-03T23:08:15.336Z,97890.56
2022-12-03T23:13:18.977Z,97897.19
2022-12-03T23:18:21.158Z,97886.00
2022-12-03T23:23:25.503Z,97882.41
2022-12-03T23:28:28.633Z,97877.16
2022-12-03T23:33:35.271Z,97869.94
2022-12-03T23:38:40.643Z,97867.72
2022-12-03T23:43:43.023Z,97867.25
2022-12-03T23:48:45.597Z,97866.09
2022-12-03T23:53:47.739Z,97865.59
2022-12-03T23:58:49.909Z,97862.00
